createdAt,value
2023-02-16T00:02:10.271Z,102070.03
2023-02-16T00:04:37.614Z,102074.19
2023-02-16T00:07:04.964Z,102079.97
2023-02-16T00:09:33.236Z,102081.06
2023-02-16T00:12:19.137Z,102078.56
2023-02-16T00:14:46.465Z,102074.16
2023-02-16T00:17:13.722Z,102073.63
2023-02-16T00:19:42.673Z,102068.66
2023-02-16T00:22:11.344Z,102069.22
2023-02-16T00:24:38.631Z,102064.81
2023-02-16T00:27:14.046Z,102070.31
2023-02-16T00:29:41.758Z,102069.50
2023-02-16T00:32:12.461Z,102067.28
2023-02-16T00:34:43.163Z,102064.25
2023-02-16T00:37:12.472Z,102068.09
2023-02-16T00:39:41.646Z,102062.28
2023-02-16T00:42:11.755Z,102060.09
2023-02-16T00:44:45.744Z,102064.50
2023-02-16T00:47:38.058Z,102058.72
2023-02-16T00:50:24.096Z,102056.53
2023-02-16T00:52:51.829Z,102052.44
2023-02-16T00:55:21.871Z,102050.50
2023-02-16T00:58:01.323Z,102047.19
2023-02-16T01:00:35.840Z,102051.56
2023-02-16T01:03:07.475Z,102043.88
2023-02-16T01:05:36.414Z,102044.91
2023-02-16T01:08:28.489Z,102040.00
2023-02-16T01:10:59.136Z,102042.16
2023-02-16T01:13:28.448Z,102041.88
2023-02-16T01:15:56.393Z,102042.47
2023-02-16T01:18:23.759Z,102048.56
2023-02-16T01:20:52.152Z,102047.72
2023-02-16T01:23:19.466Z,102042.22
2023-02-16T01:25:46.737Z,102043.56
2023-02-16T01:28:21.173Z,102036.69
2023-02-16T01:30:49.520Z,102035.63
2023-02-16T01:33:16.994Z,102031.25
2023-02-16T01:35:45.004Z,102036.16
2023-02-16T01:38:23.599Z,102027.09
2023-02-16T01:41:32.914Z,102031.75
2023-02-16T01:44:05.079Z,102022.13
2023-02-16T01:46:50.773Z,102022.63
2023-02-16T01:49:19.969Z,102016.91
2023-02-16T01:51:57.763Z,102013.59
2023-02-16T01:54:44.001Z,102007.00
2023-02-16T01:57:41.170Z,102011.91
2023-02-16T02:00:16.889Z,102005.31
2023-02-16T02:02:54.978Z,102013.59
2023-02-16T02:05:35.152Z,102012.50
2023-02-16T02:08:11.591Z,102010.81
2023-02-16T02:11:09.827Z,102013.88
2023-02-16T02:13:40.142Z,102005.53
2023-02-16T02:16:08.347Z,102007.16
2023-02-16T02:18:35.810Z,101994.19
2023-02-16T02:21:23.076Z,101996.28
2023-02-16T02:24:11.637Z,101989.31
2023-02-16T02:27:06.154Z,101982.06
2023-02-16T02:30:10.725Z,101974.53
2023-02-16T02:32:57.043Z,101976.44
2023-02-16T02:35:47.484Z,101972.38
2023-02-16T02:38:40.005Z,101984.09
2023-02-16T02:41:54.908Z,101992.94
2023-02-16T02:44:24.340Z,101997.25
2023-02-16T02:46:51.734Z,101984.47
2023-02-16T02:49:20.371Z,101985.53
2023-02-16T02:51:48.750Z,101985.25
2023-02-16T02:54:42.676Z,101985.19
2023-02-16T02:58:09.271Z,101981.22
2023-02-16T03:00:43.724Z,101983.84
2023-02-16T03:03:27.703Z,101975.19
2023-02-16T03:06:03.020Z,101973.00
2023-02-16T03:08:33.102Z,101970.56
2023-02-16T03:11:30.429Z,101974.06
2023-02-16T03:14:00.913Z,101971.06
2023-02-16T03:16:38.650Z,101971.31
2023-02-16T03:19:25.984Z,101968.56
2023-02-16T03:22:12.344Z,101970.00
2023-02-16T03:24:58.336Z,101966.97
2023-02-16T03:27:46.800Z,101970.00
2023-02-16T03:30:15.712Z,101973.09
2023-02-16T03:32:44.534Z,101963.34
2023-02-16T03:35:12.821Z,101973.09
2023-02-16T03:37:41.220Z,101968.28
2023-02-16T03:40:29.415Z,101957.47
2023-02-16T03:42:58.769Z,101965.22
2023-02-16T03:45:26.510Z,101961.97
2023-02-16T03:47:54.199Z,101965.47
2023-02-16T03:50:22.105Z,101962.66
2023-02-16T03:52:49.690Z,101963.81
2023-02-16T03:55:17.134Z,101965.75
2023-02-16T03:57:44.413Z,101964.94
2023-02-16T04:00:12.179Z,101972.13
2023-02-16T04:02:43.713Z,101973.44
2023-02-16T04:05:11.089Z,101978.75
2023-02-16T04:07:38.513Z,101974.94
2023-02-16T04:10:06.365Z,101980.69
2023-02-16T04:12:36.503Z,101969.69
2023-02-16T04:15:08.282Z,101972.47
2023-02-16T04:17:35.637Z,101968.59
2023-02-16T04:20:03.344Z,101967.81
2023-02-16T04:22:30.610Z,101967.78
2023-02-16T04:24:57.965Z,101958.47
2023-02-16T04:27:25.335Z,101966.72
2023-02-16T04:29:52.735Z,101964.25
2023-02-16T04:32:20.242Z,101962.59
2023-02-16T04:34:47.536Z,101962.25
2023-02-16T04:37:14.925Z,101965.19
2023-02-16T04:39:42.511Z,101968.91
2023-02-16T04:42:09.779Z,101961.31
2023-02-16T04:44:37.050Z,101971.88
2023-02-16T04:47:04.394Z,101967.34
2023-02-16T04:49:31.704Z,101963.13
2023-02-16T04:52:00.914Z,101964.00
2023-02-16T04:54:28.220Z,101960.53
2023-02-16T04:56:55.612Z,101971.84
2023-02-16T04:59:22.948Z,101973.38
2023-02-16T05:01:50.248Z,101978.50
2023-02-16T05:04:17.634Z,101972.91
2023-02-16T05:06:45.150Z,101973.44
2023-02-16T05:09:12.569Z,101975.53
2023-02-16T05:11:58.614Z,101975.16
2023-02-16T05:14:46.607Z,101981.75
2023-02-16T05:17:22.804Z,101984.31
2023-02-16T05:19:53.157Z,101985.63
2023-02-16T05:22:20.864Z,101977.78
2023-02-16T05:24:48.524Z,101976.88
2023-02-16T05:27:23.418Z,101975.34
2023-02-16T05:29:51.274Z,101969.00
2023-02-16T05:32:18.972Z,101971.44
2023-02-16T05:34:46.439Z,101967.59
2023-02-16T05:37:15.101Z,101973.41
2023-02-16T05:39:42.690Z,101963.19
2023-02-16T05:42:10.457Z,101975.06
2023-02-16T05:44:38.343Z,101971.63
2023-02-16T05:47:05.691Z,101981.97
2023-02-16T05:49:32.957Z,101976.84
2023-02-16T05:52:00.397Z,101972.97
2023-02-16T05:54:28.203Z,101968.06
2023-02-16T05:56:55.674Z,101975.94
2023-02-16T05:59:23.368Z,101978.53
2023-02-16T06:01:52.140Z,101967.72
2023-02-16T06:04:20.820Z,101974.72
2023-02-16T06:06:48.471Z,101982.84
2023-02-16T06:09:15.922Z,101982.97
2023-02-16T06:11:43.475Z,101970.28
2023-02-16T06:14:14.601Z,101977.66
2023-02-16T06:16:44.916Z,101983.38
2023-02-16T06:19:12.618Z,101978.03
2023-02-16T06:21:40.697Z,101981.91
2023-02-16T06:24:09.943Z,101989.63
2023-02-16T06:26:37.560Z,101990.91
2023-02-16T06:29:05.601Z,101989.31
2023-02-16T06:31:36.080Z,101981.91
2023-02-16T06:34:04.561Z,101991.91
2023-02-16T06:36:32.926Z,101993.19
2023-02-16T06:39:00.199Z,101999.94
2023-02-16T06:41:40.227Z,102002.16
2023-02-16T06:44:12.298Z,102008.19
2023-02-16T06:46:44.610Z,102009.69
2023-02-16T06:49:14.174Z,102012.41
2023-02-16T06:51:41.684Z,102013.19
2023-02-16T06:54:09.034Z,102019.25
2023-02-16T06:56:37.962Z,102021.88
2023-02-16T06:59:05.631Z,102015.47
2023-02-16T07:01:32.880Z,102020.94
2023-02-16T07:04:00.150Z,102032.97
2023-02-16T07:06:29.430Z,102030.81
2023-02-16T07:08:56.817Z,102033.34
2023-02-16T07:11:24.206Z,102027.69
2023-02-16T07:13:51.539Z,102033.63
2023-02-16T07:16:19.182Z,102036.16
2023-02-16T07:18:47.420Z,102034.81
2023-02-16T07:21:15.308Z,102044.19
2023-02-16T07:23:43.052Z,102049.91
2023-02-16T07:26:10.463Z,102055.84
2023-02-16T07:28:37.854Z,102052.16
2023-02-16T07:31:09.657Z,102056.94
2023-02-16T07:33:37.559Z,102063.56
2023-02-16T07:36:05.756Z,102062.38
2023-02-16T07:38:33.389Z,102055.38
2023-02-16T07:41:00.653Z,102059.06
2023-02-16T07:43:28.026Z,102063.56
2023-02-16T07:45:55.326Z,102063.59
2023-02-16T07:48:22.697Z,102054.81
2023-02-16T07:50:50.279Z,102060.34
2023-02-16T07:53:17.702Z,102053.44
2023-02-16T07:55:45.969Z,102054.56
2023-02-16T07:58:27.322Z,102055.06
2023-02-16T08:01:09.862Z,102052.00
2023-02-16T08:03:37.802Z,102057.59
2023-02-16T08:06:17.825Z,102057.88
2023-02-16T08:08:46.753Z,102075.16
2023-02-16T08:11:27.145Z,102068.56
2023-02-16T08:13:54.301Z,102068.00
2023-02-16T08:16:24.032Z,102069.06
2023-02-16T08:18:52.271Z,102080.38
2023-02-16T08:21:21.975Z,102079.63
2023-02-16T08:23:54.754Z,102071.41
2023-02-16T08:26:24.061Z,102070.28
2023-02-16T08:28:54.285Z,102068.91
2023-02-16T08:31:25.190Z,102063.94
2023-02-16T08:33:53.701Z,102069.19
2023-02-16T08:36:24.105Z,102063.69
2023-02-16T08:38:54.120Z,102054.34
2023-02-16T08:41:23.870Z,102044.19
2023-02-16T08:43:51.281Z,102034.00
2023-02-16T08:46:18.886Z,102037.84
2023-02-16T08:48:47.431Z,102044.19
2023-02-16T08:51:18.434Z,102055.44
2023-02-16T08:53:48.514Z,102048.59
2023-02-16T08:56:16.759Z,102048.91
2023-02-16T08:58:44.387Z,102032.84
2023-02-16T09:01:12.988Z,102035.03
2023-02-16T09:03:44.889Z,102045.97
2023-02-16T09:06:14.268Z,102033.75
2023-02-16T09:08:42.270Z,102045.97
2023-02-16T09:11:13.035Z,102054.09
2023-02-16T09:13:41.131Z,102059.03
2023-02-16T09:16:16.067Z,102069.78
2023-02-16T09:18:45.053Z,102079.69
2023-02-16T09:21:15.662Z,102078.56
2023-02-16T09:23:48.617Z,102083.25
2023-02-16T09:26:20.625Z,102094.00
2023-02-16T09:28:48.990Z,102102.53
2023-02-16T09:31:25.481Z,102094.53
2023-02-16T09:34:14.024Z,102092.06
2023-02-16T09:36:47.705Z,102084.63
2023-02-16T09:39:17.004Z,102085.47
2023-02-16T09:42:15.368Z,102080.19
2023-02-16T09:44:54.733Z,102084.56
2023-02-16T09:47:31.212Z,102099.47
2023-02-16T09:50:01.307Z,102086.44
2023-02-16T09:52:45.047Z,102077.75
2023-02-16T09:55:17.180Z,102088.84
2023-02-16T09:57:57.874Z,102084.59
2023-02-16T10:00:45.200Z,102087.94
2023-02-16T10:03:38.956Z,102089.97
2023-02-16T10:06:28.118Z,102096.28
2023-02-16T10:09:16.494Z,102093.44
2023-02-16T10:11:49.859Z,102087.56
2023-02-16T10:14:45.191Z,102088.53
2023-02-16T10:17:38.983Z,102087.16
2023-02-16T10:20:09.405Z,102087.88
2023-02-16T10:22:43.958Z,102085.53
2023-02-16T10:25:17.109Z,102086.47
2023-02-16T10:27:50.487Z,102086.75
2023-02-16T10:30:20.225Z,102082.72
2023-02-16T10:32:47.790Z,102089.13
2023-02-16T10:35:18.185Z,102088.91
2023-02-16T10:38:08.645Z,102088.81
2023-02-16T10:40:52.649Z,102092.97
2023-02-16T10:43:31.068Z,102095.03
2023-02-16T10:45:59.614Z,102101.94
2023-02-16T10:48:27.242Z,102097.66
2023-02-16T10:50:58.771Z,102093.75
2023-02-16T10:53:32.358Z,102085.69
2023-02-16T10:55:59.887Z,102081.56
2023-02-16T10:58:36.666Z,102081.56
2023-02-16T11:01:11.878Z,102088.25
2023-02-16T11:03:45.313Z,102089.50
2023-02-16T11:06:14.604Z,102084.03
2023-02-16T11:08:50.915Z,102092.53
2023-02-16T11:11:19.239Z,102090.34
2023-02-16T11:13:50.165Z,102090.38
2023-02-16T11:16:23.768Z,102090.47
2023-02-16T11:19:00.103Z,102080.25
2023-02-16T11:21:47.389Z,102091.41
2023-02-16T11:24:31.645Z,102083.94
2023-02-16T11:27:03.276Z,102082.00
2023-02-16T11:29:31.517Z,102078.72
2023-02-16T11:31:59.512Z,102074.94
2023-02-16T11:34:37.672Z,102070.47
2023-02-16T11:37:25.552Z,102078.75
2023-02-16T11:39:55.799Z,102066.19
2023-02-16T11:42:29.005Z,102061.75
2023-02-16T11:44:58.885Z,102068.13
2023-02-16T11:47:30.301Z,102067.22
2023-02-16T11:50:28.968Z,102070.13
2023-02-16T11:53:11.536Z,102058.09
2023-02-16T11:55:43.341Z,102056.38
2023-02-16T11:58:25.341Z,102048.38
2023-02-16T12:00:58.664Z,102046.66
2023-02-16T12:03:53.341Z,102035.63
2023-02-16T12:06:45.454Z,102042.41
2023-02-16T12:09:38.092Z,102035.09
2023-02-16T12:12:17.483Z,102027.81
2023-02-16T12:14:54.092Z,102030.00
2023-02-16T12:17:46.954Z,102027.16
2023-02-16T12:20:29.522Z,102018.44
2023-02-16T12:23:23.117Z,102007.56
2023-02-16T12:26:04.741Z,102013.53
2023-02-16T12:28:53.519Z,102013.75
2023-02-16T12:31:27.059Z,102012.47
2023-02-16T12:34:20.101Z,102018.88
2023-02-16T12:37:09.382Z,102014.94
2023-02-16T12:40:05.704Z,102011.53
2023-02-16T12:42:48.662Z,101989.97
2023-02-16T12:45:22.956Z,102002.63
2023-02-16T12:47:54.667Z,102000.47
2023-02-16T12:50:24.637Z,101990.28
2023-02-16T12:52:56.207Z,101994.00
2023-02-16T12:55:31.462Z,101989.56
2023-02-16T12:58:08.042Z,101991.34
2023-02-16T13:00:43.710Z,101992.53
2023-02-16T13:03:20.898Z,101990.75
2023-02-16T13:06:08.322Z,101982.78
2023-02-16T13:08:52.134Z,101997.47
2023-02-16T13:11:28.689Z,101989.06
2023-02-16T13:13:59.684Z,101988.53
2023-02-16T13:16:47.408Z,101985.63
2023-02-16T13:19:15.576Z,101984.63
2023-02-16T13:21:58.824Z,101981.53
2023-02-16T13:24:43.024Z,101970.13
2023-02-16T13:27:37.223Z,101971.94
2023-02-16T13:30:24.643Z,101968.06
2023-02-16T13:33:14.705Z,101961.72
2023-02-16T13:35:57.420Z,101964.13
2023-02-16T13:38:56.420Z,101953.19
2023-02-16T13:41:35.937Z,101948.94
2023-02-16T13:44:21.349Z,101948.41
2023-02-16T13:46:52.593Z,101951.16
2023-02-16T13:49:28.027Z,101945.00
2023-02-16T13:51:55.348Z,101935.72
2023-02-16T13:54:26.907Z,101934.69
2023-02-16T13:56:54.280Z,101935.75
2023-02-16T13:59:22.336Z,101939.91
2023-02-16T14:01:51.276Z,101923.25
2023-02-16T14:04:27.606Z,101921.59
2023-02-16T14:07:03.790Z,101924.69
2023-02-16T14:09:33.665Z,101927.88
2023-02-16T14:12:03.147Z,101924.22
2023-02-16T14:14:34.826Z,101919.75
2023-02-16T14:17:23.367Z,101929.72
2023-02-16T14:19:57.498Z,101928.91
2023-02-16T14:22:43.521Z,101921.16
2023-02-16T14:25:20.580Z,101935.34
2023-02-16T14:27:49.026Z,101932.31
2023-02-16T14:30:38.924Z,101929.47
2023-02-16T14:33:12.256Z,101927.88
2023-02-16T14:35:42.600Z,101918.16
2023-02-16T14:38:18.741Z,101922.94
2023-02-16T14:41:08.844Z,101921.41
2023-02-16T14:43:47.639Z,101919.75
2023-02-16T14:46:44.196Z,101917.75
2023-02-16T14:49:48.697Z,101918.44
2023-02-16T14:52:35.929Z,101922.56
2023-02-16T14:55:23.193Z,101926.59
2023-02-16T14:57:58.364Z,101914.41
2023-02-16T15:00:45.895Z,101919.69
2023-02-16T15:03:21.106Z,101914.56
2023-02-16T15:05:58.226Z,101913.81
2023-02-16T15:08:35.094Z,101920.78
2023-02-16T15:11:13.865Z,101920.38
2023-02-16T15:13:42.843Z,101915.28
2023-02-16T15:16:15.445Z,101919.31
2023-02-16T15:18:49.813Z,101920.25
2023-02-16T15:21:28.372Z,101927.19
2023-02-16T15:23:58.231Z,101923.22
2023-02-16T15:26:35.394Z,101918.25
2023-02-16T15:29:20.689Z,101927.22
2023-02-16T15:31:48.797Z,101926.72
2023-02-16T15:34:33.775Z,101922.47
2023-02-16T15:37:02.531Z,101926.81
2023-02-16T15:39:48.388Z,101928.78
2023-02-16T15:42:27.133Z,101924.88
2023-02-16T15:44:54.407Z,101923.13
2023-02-16T15:47:27.460Z,101928.28
2023-02-16T15:49:56.149Z,101918.44
2023-02-16T15:52:33.267Z,101928.44
2023-02-16T15:55:02.330Z,101929.19
2023-02-16T15:57:32.112Z,101925.25
2023-02-16T16:00:01.184Z,101936.72
2023-02-16T16:02:35.865Z,101940.88
2023-02-16T16:05:06.895Z,101934.06
2023-02-16T16:07:40.083Z,101932.75
2023-02-16T16:10:14.518Z,101937.72
2023-02-16T16:12:42.042Z,101935.09
2023-02-16T16:15:15.970Z,101928.84
2023-02-16T16:17:43.271Z,101930.91
2023-02-16T16:20:38.666Z,101924.13
2023-02-16T16:23:27.080Z,101917.03
2023-02-16T16:25:54.806Z,101929.69
2023-02-16T16:28:24.858Z,101940.03
2023-02-16T16:31:06.684Z,101936.69
2023-02-16T16:34:02.023Z,101920.75
2023-02-16T16:37:02.611Z,101925.13
2023-02-16T16:39:32.238Z,101919.22
2023-02-16T16:42:17.810Z,101919.66
2023-02-16T16:45:00.441Z,101910.34
2023-02-16T16:47:40.350Z,101917.63
2023-02-16T16:50:09.344Z,101917.31
2023-02-16T16:52:38.523Z,101920.75
2023-02-16T16:55:27.415Z,101924.06
2023-02-16T16:58:04.362Z,101931.88
2023-02-16T17:00:35.454Z,101923.53
2023-02-16T17:03:05.286Z,101921.56
2023-02-16T17:05:34.103Z,101928.16
2023-02-16T17:08:01.675Z,101941.13
2023-02-16T17:10:29.571Z,101935.38
2023-02-16T17:12:58.369Z,101940.09
2023-02-16T17:15:30.169Z,101942.34
2023-02-16T17:17:58.414Z,101944.13
2023-02-16T17:20:25.766Z,101938.94
2023-02-16T17:22:53.161Z,101948.38
2023-02-16T17:25:20.818Z,101949.13
2023-02-16T17:27:48.113Z,101943.97
2023-02-16T17:30:15.776Z,101962.56
2023-02-16T17:32:43.222Z,101958.22
2023-02-16T17:35:10.647Z,101957.66
2023-02-16T17:37:37.992Z,101962.88
2023-02-16T17:40:11.958Z,101970.81
2023-02-16T17:42:39.295Z,101970.56
2023-02-16T17:45:06.884Z,101966.53
2023-02-16T17:47:34.334Z,101978.47
2023-02-16T17:50:01.864Z,101971.53
2023-02-16T17:52:29.426Z,101981.56
2023-02-16T17:54:56.719Z,101977.16
2023-02-16T17:57:24.338Z,101983.91
2023-02-16T17:59:51.711Z,101971.47
2023-02-16T18:02:19.338Z,101977.56
2023-02-16T18:04:46.722Z,101977.72
2023-02-16T18:07:15.131Z,101978.16
2023-02-16T18:09:42.590Z,101982.19
2023-02-16T18:12:10.026Z,101982.06
2023-02-16T18:14:37.488Z,101986.88
2023-02-16T18:17:05.231Z,101989.84
2023-02-16T18:19:33.980Z,101989.34
2023-02-16T18:22:01.785Z,101984.00
2023-02-16T18:24:31.418Z,101984.81
2023-02-16T18:26:58.643Z,101976.38
2023-02-16T18:29:25.986Z,101981.41
2023-02-16T18:31:53.490Z,101988.06
2023-02-16T18:34:20.946Z,101979.97
2023-02-16T18:36:48.379Z,101989.16
2023-02-16T18:39:15.770Z,101990.38
2023-02-16T18:41:43.061Z,101980.91
2023-02-16T18:44:11.798Z,101979.19
2023-02-16T18:46:39.113Z,101984.41
2023-02-16T18:49:06.628Z,101974.31
2023-02-16T18:51:34.061Z,101975.84
2023-02-16T18:54:01.310Z,101973.91
2023-02-16T18:56:28.675Z,101982.06
2023-02-16T18:58:56.032Z,101987.53
2023-02-16T19:01:29.424Z,101990.53
2023-02-16T19:03:57.263Z,101994.31
2023-02-16T19:06:24.786Z,101995.81
2023-02-16T19:08:52.479Z,101995.81
2023-02-16T19:11:21.283Z,101994.78
2023-02-16T19:13:49.089Z,101995.16
2023-02-16T19:16:16.914Z,102005.16
2023-02-16T19:18:45.625Z,102001.78
2023-02-16T19:21:14.117Z,102007.75
2023-02-16T19:23:41.596Z,102000.19
2023-02-16T19:26:13.074Z,102008.59
2023-02-16T19:28:40.548Z,101994.00
2023-02-16T19:31:14.897Z,101994.13
2023-02-16T19:33:42.191Z,102006.06
2023-02-16T19:36:10.431Z,102007.13
2023-02-16T19:38:38.224Z,102004.06
2023-02-16T19:41:13.797Z,102008.69
2023-02-16T19:43:42.368Z,102004.97
2023-02-16T19:46:10.900Z,102007.75
2023-02-16T19:48:38.637Z,102008.59
2023-02-16T19:51:07.553Z,102009.19
2023-02-16T19:53:36.504Z,102014.31
2023-02-16T19:56:05.954Z,102016.50
2023-02-16T19:58:33.686Z,102010.53
2023-02-16T20:01:10.356Z,102009.91
2023-02-16T20:03:38.577Z,102018.28
2023-02-16T20:06:16.341Z,102006.31
2023-02-16T20:08:44.300Z,102005.94
2023-02-16T20:11:12.390Z,102017.38
2023-02-16T20:13:39.808Z,102027.44
2023-02-16T20:16:09.771Z,102019.25
2023-02-16T20:18:37.730Z,102014.41
2023-02-16T20:21:16.387Z,102022.84
2023-02-16T20:23:44.222Z,102020.94
2023-02-16T20:26:20.623Z,102018.63
2023-02-16T20:28:49.111Z,102023.41
2023-02-16T20:31:28.829Z,102025.88
2023-02-16T20:33:56.437Z,102016.09
2023-02-16T20:36:24.077Z,102029.31
2023-02-16T20:38:51.446Z,102020.56
2023-02-16T20:41:19.946Z,102032.78
2023-02-16T20:43:48.049Z,102025.47
2023-02-16T20:46:16.348Z,102022.63
2023-02-16T20:48:45.567Z,102028.66
2023-02-16T20:51:13.652Z,102032.78
2023-02-16T20:53:41.408Z,102025.44
2023-02-16T20:56:19.993Z,102030.16
2023-02-16T20:58:49.567Z,102022.06
2023-02-16T21:01:23.630Z,102022.66
2023-02-16T21:03:52.712Z,102027.03
2023-02-16T21:06:23.783Z,102035.63
2023-02-16T21:08:51.389Z,102038.19
2023-02-16T21:11:18.968Z,102043.41
2023-02-16T21:13:46.890Z,102037.44
2023-02-16T21:16:14.875Z,102044.72
2023-02-16T21:18:42.826Z,102044.41
2023-02-16T21:21:15.548Z,102045.16
2023-02-16T21:23:46.838Z,102044.91
2023-02-16T21:26:15.102Z,102049.19
2023-02-16T21:28:46.272Z,102048.63
2023-02-16T21:31:17.067Z,102054.38
2023-02-16T21:33:44.563Z,102054.59
2023-02-16T21:36:19.188Z,102046.81
2023-02-16T21:38:46.683Z,102043.97
2023-02-16T21:41:25.487Z,102044.66
2023-02-16T21:44:03.501Z,102054.38
2023-02-16T21:46:37.801Z,102052.41
2023-02-16T21:49:19.375Z,102053.31
2023-02-16T21:51:47.893Z,102048.28
2023-02-16T21:54:17.713Z,102056.59
2023-02-16T21:56:50.218Z,102061.97
2023-02-16T21:59:19.363Z,102066.38
2023-02-16T22:01:51.043Z,102057.28
2023-02-16T22:04:21.867Z,102062.63
2023-02-16T22:06:50.214Z,102065.41
2023-02-16T22:09:22.770Z,102059.31
2023-02-16T22:11:50.782Z,102061.81
2023-02-16T22:14:18.639Z,102064.75
2023-02-16T22:16:47.481Z,102055.19
2023-02-16T22:19:16.185Z,102052.34
2023-02-16T22:21:44.979Z,102050.19
2023-02-16T22:24:14.457Z,102056.28
2023-02-16T22:26:46.489Z,102044.03
2023-02-16T22:29:15.328Z,102052.44
2023-02-16T22:31:44.717Z,102043.97
2023-02-16T22:34:14.535Z,102053.44
2023-02-16T22:36:41.905Z,102045.84
2023-02-16T22:39:12.478Z,102047.91
2023-02-16T22:41:41.456Z,102048.75
2023-02-16T22:44:10.818Z,102045.75
2023-02-16T22:46:38.101Z,102040.06
2023-02-16T22:49:05.451Z,102041.78
2023-02-16T22:51:33.066Z,102043.59
2023-02-16T22:54:01.657Z,102038.72
2023-02-16T22:56:30.083Z,102023.00
2023-02-16T22:58:58.503Z,102037.28
2023-02-16T23:01:27.954Z,102035.88
2023-02-16T23:03:57.621Z,102035.94
2023-02-16T23:06:31.189Z,102033.66
2023-02-16T23:09:01.287Z,102031.19
2023-02-16T23:11:29.029Z,102037.00
2023-02-16T23:13:56.509Z,102031.09
2023-02-16T23:16:25.269Z,102031.53
2023-02-16T23:18:57.330Z,102036.94
2023-02-16T23:21:29.833Z,102032.16
2023-02-16T23:23:57.995Z,102046.72
2023-02-16T23:26:27.347Z,102043.81
2023-02-16T23:28:57.144Z,102042.91
2023-02-16T23:31:24.476Z,102047.31
2023-02-16T23:33:52.038Z,102044.03
2023-02-16T23:36:19.338Z,102037.31
2023-02-16T23:38:46.705Z,102043.97
2023-02-16T23:41:14.677Z,102048.44
2023-02-16T23:43:42.637Z,102039.47
2023-02-16T23:46:10.901Z,102043.22
2023-02-16T23:48:38.524Z,102040.97
2023-02-16T23:51:06.312Z,102040.91
2023-02-16T23:53:36.032Z,102036.31
2023-02-16T23:56:09.431Z,102039.69
2023-02-16T23:58:41.322Z,102029.63
